Time;durP1;ratioP1;P1;durP2;ratioP2;P2;SDS_P1;SDS_P2;PMS_P1;PMS_P2;Temp;Humidity;BMP_temperature;BMP_pressure;BME280_temperature;BME280_humidity;BME280_pressure;Samples;Min_cycle;Max_cycle;Signal;HPM_P1;HPM_P2
2022/09/12 00:00:38;;;;;;;2.50;2.30;;;;;;;22.83;51.25;101711.44;5036315;28;20026;-47
2022/09/12 00:03:03;;;;;;;2.90;2.65;;;;;;;22.83;51.31;101706.00;5030850;28;20017;-46
2022/09/12 00:05:29;;;;;;;2.70;2.20;;;;;;;22.82;51.36;101710.59;5033534;28;20034;-46
2022/09/12 00:07:55;;;;;;;1.77;1.63;;;;;;;22.79;51.15;101699.25;5041295;28;20021;-51
2022/09/12 00:10:20;;;;;;;2.50;2.30;;;;;;;22.80;51.23;101703.63;5040182;28;20583;-47
2022/09/12 00:12:45;;;;;;;2.33;2.10;;;;;;;22.80;51.48;101711.78;5033629;28;20037;-47
2022/09/12 00:15:11;;;;;;;2.45;2.25;;;;;;;22.79;51.26;101702.78;5020734;28;20022;-47
2022/09/12 00:17:37;;;;;;;2.65;2.45;;;;;;;22.78;51.51;101706.53;5032918;28;20117;-46
2022/09/12 00:20:07;;;;;;;3.00;2.70;;;;;;;22.78;51.14;101706.53;5019954;28;20100;-46
2022/09/12 00:22:33;;;;;;;2.58;2.10;;;;;;;22.78;51.20;101702.97;5043668;28;20036;-47
2022/09/12 00:24:59;;;;;;;3.25;2.30;;;;;;;22.73;51.21;101698.09;5044418;28;20029;-51
2022/09/12 00:27:24;;;;;;;2.15;1.90;;;;;;;22.76;51.09;101691.44;5030569;28;20053;-46
2022/09/12 00:29:49;;;;;;;2.20;2.00;;;;;;;22.70;50.69;101688.44;5034553;28;20037;-47
2022/09/12 00:32:15;;;;;;;3.47;2.95;;;;;;;22.75;51.28;101692.47;5027637;28;20013;-46
2022/09/12 00:34:40;;;;;;;2.72;2.40;;;;;;;22.73;51.32;101686.41;5037094;28;20087;-48
2022/09/12 00:37:05;;;;;;;2.97;2.30;;;;;;;22.73;51.38;101692.66;5044143;28;20086;-45
2022/09/12 00:39:30;;;;;;;2.35;2.13;;;;;;;22.72;51.13;101696.38;5029709;28;20072;-47
2022/09/12 00:41:56;;;;;;;2.10;1.90;;;;;;;22.73;51.26;101691.81;5033941;28;20471;-47
2022/09/12 00:44:21;;;;;;;2.30;2.10;;;;;;;22.71;51.20;101689.25;5038216;28;20102;-47
2022/09/12 00:46:53;;;;;;;2.53;2.22;;;;;;;22.71;51.27;101700.09;5039060;28;20033;-47
2022/09/12 00:49:23;;;;;;;2.22;2.03;;;;;;;22.69;50.95;101694.03;5010535;28;20030;-49
2022/09/12 00:51:51;;;;;;;2.47;2.15;;;;;;;22.70;51.08;101698.44;5030947;28;20021;-47
2022/09/12 00:54:24;;;;;;;2.50;2.30;;;;;;;22.68;51.11;101690.47;5012890;28;20033;-49
2022/09/12 00:56:50;;;;;;;2.25;2.05;;;;;;;22.67;51.06;101677.94;5037385;28;20030;-48
2022/09/12 00:59:20;;;;;;;2.70;2.22;;;;;;;22.67;51.03;101685.22;5047277;28;20029;-46
2022/09/12 01:01:47;;;;;;;2.15;1.95;;;;;;;22.65;51.05;101685.41;5039999;28;20089;-46
2022/09/12 01:04:13;;;;;;;3.28;2.47;;;;;;;22.65;50.97;101684.56;5044375;28;20295;-50
2022/09/12 01:06:41;;;;;;;2.22;1.95;;;;;;;22.65;50.91;101673.72;5035717;28;20072;-46
2022/09/12 01:09:07;;;;;;;2.20;1.95;;;;;;;22.63;51.13;101675.75;5036854;28;20053;-48
2022/09/12 01:11:37;;;;;;;2.30;2.10;;;;;;;22.62;51.06;101672.19;5025280;28;20030;-47
2022/09/12 01:14:03;;;;;;;2.58;1.92;;;;;;;22.61;51.16;101677.78;5025841;28;20025;-48
2022/09/12 01:16:28;;;;;;;1.80;1.70;;;;;;;22.59;50.93;101661.69;5043153;28;20041;-49
2022/09/12 01:19:35;;;;;;;2.58;2.38;;;;;;;22.62;50.96;101674.06;5029378;28;20032;-49
2022/09/12 01:22:48;;;;;;;2.20;1.98;;;;;;;22.60;50.99;101676.94;5037738;28;20029;-46
2022/09/12 01:25:28;;;;;;;2.22;2.03;;;;;;;22.58;51.21;101672.72;5020961;28;20115;-46
2022/09/12 01:28:10;;;;;;;2.13;1.92;;;;;;;22.58;50.96;101678.97;5033737;28;20028;-46
2022/09/12 01:30:44;;;;;;;2.33;2.00;;;;;;;22.57;50.96;101677.28;5019306;28;20156;-48
2022/09/12 01:33:22;;;;;;;2.50;2.13;;;;;;;22.57;50.74;101676.44;5016865;28;20436;-49
2022/09/12 01:36:18;;;;;;;2.73;2.20;;;;;;;22.55;51.05;101675.75;5007800;28;20074;-48
2022/09/12 01:38:49;;;;;;;2.15;1.90;;;;;;;22.54;50.76;101664.09;5036977;28;20057;-50
2022/09/12 01:41:35;;;;;;;2.33;2.08;;;;;;;22.53;51.08;101659.69;5029820;28;20020;-47
2022/09/12 01:44:06;;;;;;;1.98;1.77;;;;;;;22.53;51.03;101648.84;5036752;28;20121;-47
2022/09/12 01:47:15;;;;;;;1.92;1.73;;;;;;;22.53;51.10;101658.84;5025140;28;20041;-49
2022/09/12 01:49:47;;;;;;;2.03;1.83;;;;;;;22.51;50.97;101641.91;5025465;28;20037;-49
2022/09/12 01:52:36;;;;;;;2.25;2.05;;;;;;;22.44;50.73;101639.91;5025919;28;20025;-47
2022/09/12 01:55:19;;;;;;;1.90;1.70;;;;;;;22.47;50.74;101644.09;5031179;28;20021;-48
2022/09/12 01:58:02;;;;;;;2.13;1.73;;;;;;;22.46;51.01;101634.28;4994772;28;20029;-47
2022/09/12 02:00:27;;;;;;;2.13;1.85;;;;;;;22.48;50.77;101634.97;5016544;28;20026;-47
2022/09/12 02:03:01;;;;;;;2.13;1.92;;;;;;;22.48;50.74;101637.69;5045975;28;20151;-46
2022/09/12 02:05:44;;;;;;;1.65;1.55;;;;;;;22.47;51.06;101630.56;5039544;28;20025;-51
2022/09/12 02:08:13;;;;;;;1.95;1.75;;;;;;;22.47;50.82;101630.56;5015385;28;20037;-47
2022/09/12 02:10:56;;;;;;;1.95;1.70;;;;;;;22.47;50.71;101625.13;5039449;28;20093;-51
2022/09/12 02:13:26;;;;;;;2.67;1.70;;;;;;;22.45;50.82;101625.31;5034609;28;20044;-48
2022/09/12 02:15:55;;;;;;;1.70;1.60;;;;;;;22.45;50.70;101616.34;5036906;28;20032;-46
2022/09/12 02:18:20;;;;;;;2.33;2.13;;;;;;;22.42;50.70;101609.41;5063333;28;20021;-47
2022/09/12 02:20:47;;;;;;;1.90;1.70;;;;;;;22.43;50.90;101608.41;5041326;28;20026;-47
2022/09/12 02:23:18;;;;;;;2.08;1.70;;;;;;;22.45;50.82;101602.81;5025349;28;20026;-48
2022/09/12 02:25:45;;;;;;;1.65;1.40;;;;;;;22.43;50.40;101602.16;5045536;28;20028;-49
2022/09/12 02:28:15;;;;;;;1.98;1.70;;;;;;;22.43;50.65;101607.56;5045928;28;20547;-48
2022/09/12 02:30:50;;;;;;;2.10;1.73;;;;;;;22.42;50.77;101605.84;5038704;28;20026;-47
2022/09/12 02:33:34;;;;;;;2.03;1.80;;;;;;;22.42;50.47;101604.00;5022929;28;20032;-46
2022/09/12 02:36:13;;;;;;;2.10;1.80;;;;;;;22.35;50.69;101591.34;5012242;28;20026;-51
2022/09/12 02:38:44;;;;;;;2.58;1.90;;;;;;;22.33;50.47;101587.94;5014985;28;20054;-49
2022/09/12 02:41:10;;;;;;;1.63;1.45;;;;;;;22.39;50.80;101592.69;5007679;28;20029;-49
2022/09/12 02:43:36;;;;;;;1.58;1.48;;;;;;;22.38;50.63;101582.84;4999104;28;20030;-49
2022/09/12 02:46:03;;;;;;;1.75;1.65;;;;;;;22.39;50.39;101587.25;5021332;28;20113;-49
2022/09/12 02:48:31;;;;;;;2.05;1.70;;;;;;;22.37;50.49;101584.72;4997046;28;20034;-45
2022/09/12 02:50:57;;;;;;;1.83;1.50;;;;;;;22.36;50.31;101579.47;5015513;28;20026;-48
2022/09/12 02:53:25;;;;;;;1.85;1.73;;;;;;;22.35;50.54;101575.94;4995304;28;20026;-49
2022/09/12 02:55:50;;;;;;;1.90;1.70;;;;;;;22.32;50.65;101575.44;4992899;28;20027;-45
2022/09/12 02:58:18;;;;;;;1.90;1.70;;;;;;;22.34;50.55;101586.91;5015286;28;20287;-47
2022/09/12 03:01:29;;;;;;;1.88;1.77;;;;;;;22.34;50.38;101582.34;4997828;28;20026;-48
2022/09/12 03:04:32;;;;;;;1.80;1.70;;;;;;;22.32;50.61;101578.97;5000277;28;20031;-46
2022/09/12 03:07:19;;;;;;;1.90;1.67;;;;;;;22.32;50.29;101581.69;4965104;29;20023;-48
2022/09/12 03:10:12;;;;;;;1.95;1.77;;;;;;;22.30;50.27;101572.91;4980940;28;20037;-48
2022/09/12 03:12:47;;;;;;;2.22;1.67;;;;;;;22.29;50.30;101567.66;4982556;28;20081;-50
2022/09/12 03:15:32;;;;;;;1.90;1.80;;;;;;;22.28;50.32;101572.22;4967776;28;20193;-49
2022/09/12 03:18:06;;;;;;;1.92;1.70;;;;;;;22.27;50.36;101567.00;4967741;28;20043;-51
2022/09/12 03:20:52;;;;;;;1.83;1.50;;;;;;;22.27;50.45;101570.53;4983311;28;20507;-52
2022/09/12 03:23:30;;;;;;;1.58;1.48;;;;;;;22.28;50.27;101571.38;4986569;28;20035;-51
2022/09/12 03:26:24;;;;;;;1.90;1.50;;;;;;;22.26;50.53;101571.56;4993352;28;20031;-48
2022/09/12 03:28:50;;;;;;;1.65;1.55;;;;;;;22.25;50.37;101577.13;4961542;28;20082;-47
2022/09/12 03:31:18;;;;;;;2.20;1.48;;;;;;;22.24;50.22;101573.59;4983094;28;20047;-49
2022/09/12 03:33:43;;;;;;;1.95;1.50;;;;;;;22.19;50.32;101565.16;4971724;28;20562;-49
2022/09/12 03:36:19;;;;;;;1.98;1.80;;;;;;;22.25;50.29;101569.84;4998413;28;20082;-48
2022/09/12 03:38:44;;;;;;;1.73;1.63;;;;;;;22.21;50.33;101566.66;5024039;28;20049;-48
2022/09/12 03:41:09;;;;;;;1.80;1.70;;;;;;;22.22;50.08;101564.81;5024868;28;20104;-47
2022/09/12 03:43:34;;;;;;;2.13;1.42;;;;;;;22.18;50.37;101566.19;5018814;28;20030;-47
2022/09/12 03:46:00;;;;;;;2.33;1.70;;;;;;;22.21;50.22;101568.50;5021447;28;20022;-49
2022/09/12 03:48:25;;;;;;;1.38;1.27;;;;;;;22.21;50.14;101579.34;5015181;28;20145;-48
2022/09/12 03:50:50;;;;;;;1.60;1.33;;;;;;;22.18;50.11;101567.00;5010588;28;20457;-46
2022/09/12 03:53:15;;;;;;;1.90;1.60;;;;;;;22.19;50.42;101570.56;5018031;28;20105;-47
2022/09/12 03:55:41;;;;;;;1.58;1.48;;;;;;;22.17;50.10;101565.34;5018660;28;20030;-47
2022/09/12 03:58:06;;;;;;;1.63;1.40;;;;;;;22.19;50.17;101563.28;5010771;28;20021;-45
2022/09/12 04:00:32;;;;;;;1.42;1.33;;;;;;;22.18;50.06;101569.72;5024605;28;20032;-49
2022/09/12 04:02:57;;;;;;;1.92;1.52;;;;;;;22.16;49.95;101552.78;5022041;28;20057;-48
2022/09/12 04:05:23;;;;;;;1.60;1.50;;;;;;;22.16;50.02;101555.50;5013667;28;20045;-47
2022/09/12 04:07:49;;;;;;;2.00;1.77;;;;;;;22.15;49.82;101552.97;5023670;28;20117;-47
2022/09/12 04:10:14;;;;;;;1.70;1.52;;;;;;;22.14;50.03;101551.28;5011777;28;20076;-51
2022/09/12 04:12:39;;;;;;;1.40;1.30;;;;;;;22.15;50.22;101555.69;5011568;28;20049;-49
2022/09/12 04:15:06;;;;;;;1.75;1.45;;;;;;;22.13;50.13;101547.75;5018941;28;20045;-47
2022/09/12 04:17:33;;;;;;;1.52;1.42;;;;;;;22.12;49.95;101547.84;5004896;28;20022;-48
2022/09/12 04:19:58;;;;;;;1.70;1.40;;;;;;;22.13;49.87;101544.16;5016454;28;20018;-49
2022/09/12 04:22:23;;;;;;;1.58;1.40;;;;;;;22.08;50.05;101535.69;5015581;28;20033;-48
2022/09/12 04:24:49;;;;;;;2.03;1.70;;;;;;;22.11;50.05;101541.59;5018560;28;20040;-46
2022/09/12 04:27:14;;;;;;;2.08;1.60;;;;;;;22.10;50.06;101537.22;5011322;28;20049;-48
2022/09/12 04:29:39;;;;;;;1.52;1.40;;;;;;;22.11;49.82;101543.47;5010299;28;20026;-51
2022/09/12 04:32:04;;;;;;;1.75;1.60;;;;;;;22.05;50.14;101530.63;5027710;28;20025;-47
2022/09/12 04:34:31;;;;;;;1.65;1.50;;;;;;;22.10;50.05;101541.78;5022452;28;20037;-48
2022/09/12 04:36:56;;;;;;;1.70;1.30;;;;;;;22.09;50.03;101542.78;5021008;28;20052;-50
2022/09/12 04:39:22;;;;;;;2.42;2.17;;;;;;;22.07;50.18;101540.25;5040261;28;20034;-47
2022/09/12 04:41:47;;;;;;;1.73;1.60;;;;;;;22.08;49.80;101547.34;5043579;28;20060;-45
2022/09/12 04:44:13;;;;;;;1.55;1.45;;;;;;;22.07;50.04;101542.13;5050035;28;20030;-47
2022/09/12 04:46:44;;;;;;;2.20;1.70;;;;;;;22.06;49.74;101545.88;5034935;28;20025;-45
2022/09/12 04:49:11;;;;;;;1.50;1.40;;;;;;;22.06;49.98;101543.16;5039208;28;20087;-48
2022/09/12 04:51:38;;;;;;;2.00;1.75;;;;;;;22.04;50.05;101546.03;5035895;28;20482;-52
2022/09/12 04:54:15;;;;;;;1.48;1.38;;;;;;;22.05;49.89;101544.19;5037634;28;20026;-47
2022/09/12 04:56:43;;;;;;;1.80;1.48;;;;;;;22.04;49.83;101542.47;5040789;28;20021;-47
2022/09/12 04:59:09;;;;;;;1.90;1.50;;;;;;;22.01;49.95;101534.72;5025437;28;20040;-48
2022/09/12 05:01:34;;;;;;;1.80;1.70;;;;;;;22.03;49.87;101543.50;5042743;28;20021;-48
2022/09/12 05:04:01;;;;;;;1.77;1.63;;;;;;;22.02;49.66;101542.66;5042014;28;20501;-47
2022/09/12 05:06:29;;;;;;;2.08;1.88;;;;;;;22.02;49.85;101548.06;5040785;28;20077;-49
2022/09/12 05:08:55;;;;;;;1.95;1.63;;;;;;;22.00;49.73;101539.25;5035961;28;20032;-49
2022/09/12 05:11:26;;;;;;;2.10;1.60;;;;;;;22.01;50.07;101550.97;5027820;28;20051;-50
2022/09/12 05:13:51;;;;;;;1.98;1.80;;;;;;;21.92;49.93;101534.75;5025828;28;20386;-50
2022/09/12 05:16:17;;;;;;;1.83;1.60;;;;;;;22.01;49.66;101545.53;5037422;28;20081;-48
2022/09/12 05:18:43;;;;;;;1.85;1.65;;;;;;;22.01;49.88;101548.25;5043231;28;20017;-48
2022/09/12 05:21:11;;;;;;;1.60;1.50;;;;;;;22.01;49.90;101545.53;5042165;28;20436;-49
2022/09/12 05:23:36;;;;;;;2.38;1.80;;;;;;;22.01;49.79;101545.53;5043093;28;20033;-46
2022/09/12 05:26:03;;;;;;;2.15;1.92;;;;;;;22.00;49.60;101543.84;5042768;28;20060;-50
2022/09/12 05:28:32;;;;;;;2.17;1.98;;;;;;;22.00;49.65;101539.25;5042540;28;20021;-49
2022/09/12 05:31:01;;;;;;;2.20;1.73;;;;;;;21.99;49.79;101534.03;5042216;28;20051;-48
2022/09/12 05:33:27;;;;;;;2.13;1.90;;;;;;;21.98;49.84;101543.19;5043047;28;20021;-49
2022/09/12 05:35:52;;;;;;;2.65;2.33;;;;;;;21.96;49.56;101538.78;5044667;28;20032;-49
2022/09/12 05:38:18;;;;;;;2.58;2.13;;;;;;;21.92;49.64;101534.75;5046407;28;20101;-47
2022/09/12 05:40:43;;;;;;;3.03;2.42;;;;;;;21.95;49.75;101538.94;5046226;28;20025;-49
2022/09/12 05:43:10;;;;;;;2.55;2.30;;;;;;;21.94;49.59;101540.81;5045524;28;20036;-50
2022/09/12 05:45:35;;;;;;;3.53;2.70;;;;;;;21.93;49.31;101544.53;5046963;28;20029;-49
2022/09/12 05:48:01;;;;;;;2.95;2.65;;;;;;;21.92;49.65;101547.44;5047885;28;20049;-47
2022/09/12 05:50:26;;;;;;;3.90;3.20;;;;;;;21.90;49.46;101549.44;5046061;28;20030;-48
2022/09/12 05:52:53;;;;;;;3.35;3.03;;;;;;;21.87;49.52;101550.63;5026112;28;20026;-46
2022/09/12 05:55:19;;;;;;;3.70;2.67;;;;;;;21.87;49.37;101555.22;5046494;28;20024;-45
2022/09/12 05:57:47;;;;;;;3.25;2.95;;;;;;;21.84;49.21;101550.16;5045711;28;20019;-48
2022/09/12 06:00:13;;;;;;;3.20;2.80;;;;;;;21.84;49.17;101561.81;5028934;28;20021;-45
2022/09/12 06:02:39;;;;;;;3.15;2.47;;;;;;;21.85;49.39;101562.66;5046120;28;20274;-51
2022/09/12 06:05:04;;;;;;;3.78;2.67;;;;;;;21.85;49.49;101559.97;5045856;28;20017;-49
2022/09/12 06:07:31;;;;;;;2.88;2.42;;;;;;;21.85;49.41;101557.25;5046442;28;20091;-47
2022/09/12 06:09:58;;;;;;;2.67;2.33;;;;;;;21.85;49.45;101563.50;5046282;28;20037;-50
2022/09/12 06:12:25;;;;;;;2.72;2.45;;;;;;;21.85;49.11;101559.97;5045952;28;20033;-47
2022/09/12 06:14:50;;;;;;;2.45;2.10;;;;;;;21.86;49.42;101553.53;5046403;28;20028;-47
2022/09/12 06:17:15;;;;;;;2.80;1.98;;;;;;;21.87;49.34;101544.38;5046163;28;20034;-48
2022/09/12 06:19:41;;;;;;;2.20;1.95;;;;;;;21.87;48.99;101544.38;5040014;28;20478;-46
2022/09/12 06:22:06;;;;;;;2.63;1.98;;;;;;;21.87;49.15;101545.22;5011071;28;20036;-49
2022/09/12 06:24:31;;;;;;;3.13;2.15;;;;;;;21.88;49.40;101541.50;5029615;28;20040;-47
2022/09/12 06:26:56;;;;;;;2.58;2.03;;;;;;;21.85;49.39;101532.88;5029269;28;20045;-48
2022/09/12 06:29:22;;;;;;;2.17;1.80;;;;;;;21.88;49.20;101535.25;5040671;28;20026;-49
2022/09/12 06:31:47;;;;;;;1.90;1.70;;;;;;;21.85;49.13;101533.72;5043324;28;20045;-51
2022/09/12 06:34:14;;;;;;;2.25;1.75;;;;;;;21.89;49.54;101536.94;5043423;28;20564;-50
2022/09/12 06:36:41;;;;;;;1.77;1.52;;;;;;;21.89;49.34;101531.53;5033415;28;20026;-48
2022/09/12 06:39:30;;;;;;;1.60;1.50;;;;;;;21.89;49.46;101532.38;5040048;28;20057;-48
2022/09/12 06:41:55;;;;;;;2.58;1.88;;;;;;;21.86;49.50;101530.00;5034223;28;20089;-49
2022/09/12 06:44:21;;;;;;;2.05;1.80;;;;;;;21.88;49.36;101537.97;5042330;28;20024;-53
2022/09/12 06:46:47;;;;;;;2.05;1.85;;;;;;;21.88;49.65;101527.13;5033566;28;20498;-50
2022/09/12 06:49:13;;;;;;;2.13;1.90;;;;;;;21.89;49.33;101542.34;5041272;28;20037;-50
2022/09/12 06:51:40;;;;;;;1.85;1.63;;;;;;;21.90;49.52;101542.16;5031093;28;20033;-53
2022/09/12 06:54:05;;;;;;;2.03;1.70;;;;;;;21.92;49.65;101547.44;5037955;28;20117;-49
2022/09/12 06:56:31;;;;;;;2.08;1.88;;;;;;;21.91;49.69;101546.56;5042602;28;20041;-52
2022/09/12 06:58:57;;;;;;;5.70;1.60;;;;;;;21.93;49.85;101543.69;5044404;28;20326;-52
2022/09/12 07:01:25;;;;;;;1.88;1.58;;;;;;;21.95;49.73;101541.66;5031570;28;20659;-48
2022/09/12 07:03:53;;;;;;;2.17;1.97;;;;;;;21.96;50.00;101533.38;5050341;28;20064;-50
2022/09/12 07:06:22;;;;;;;2.15;1.63;;;;;;;21.95;50.32;101534.38;5034574;28;20025;-50
2022/09/12 07:08:48;;;;;;;2.17;1.67;;;;;;;21.99;50.03;101534.88;5031424;28;20514;-49
2022/09/12 07:11:23;;;;;;;1.70;1.42;;;;;;;22.01;50.28;101530.13;5044259;28;20047;-51
2022/09/12 07:13:51;;;;;;;3.58;2.13;;;;;;;22.03;49.95;101529.97;5039767;28;20073;-47
2022/09/12 07:16:16;;;;;;;1.73;1.48;;;;;;;22.06;49.94;101524.19;5026018;28;20030;-50
2022/09/12 07:18:42;;;;;;;2.13;1.70;;;;;;;22.07;50.11;101525.88;5045137;28;20088;-51
2022/09/12 07:21:12;;;;;;;2.15;1.95;;;;;;;22.10;50.08;101531.81;5036374;28;20033;-52
2022/09/12 07:23:39;;;;;;;2.22;1.80;;;;;;;22.11;49.97;101521.81;5039794;28;20029;-50
2022/09/12 07:26:05;;;;;;;2.28;1.65;;;;;;;22.13;50.07;101525.19;5033467;28;20022;-51
2022/09/12 07:28:32;;;;;;;1.65;1.50;;;;;;;22.15;49.77;101525.88;5038666;28;20029;-47
2022/09/12 07:31:04;;;;;;;2.50;1.92;;;;;;;22.18;49.89;101525.53;5031275;28;20026;-47
2022/09/12 07:33:30;;;;;;;2.42;2.15;;;;;;;22.17;49.83;101529.25;5033070;28;20026;-46
2022/09/12 07:35:59;;;;;;;2.63;2.17;;;;;;;22.22;49.55;101529.59;5031274;28;20029;-48
2022/09/12 07:38:25;;;;;;;2.00;1.70;;;;;;;22.23;49.87;101525.84;5036113;28;20037;-51
2022/09/12 07:40:50;;;;;;;1.98;1.65;;;;;;;22.25;49.72;101529.22;5026852;28;20052;-54
2022/09/12 07:43:15;;;;;;;2.33;1.75;;;;;;;22.26;49.63;101524.66;5044476;28;20041;-52
2022/09/12 07:45:41;;;;;;;2.03;1.83;;;;;;;22.27;49.63;101526.34;5043864;28;20040;-54
2022/09/12 07:48:07;;;;;;;2.08;1.70;;;;;;;22.27;49.42;101520.94;5037760;28;20033;-50
2022/09/12 07:50:33;;;;;;;2.50;1.90;;;;;;;22.30;49.60;101520.56;5043717;28;20140;-51
2022/09/12 07:52:58;;;;;;;2.58;1.75;;;;;;;22.28;49.68;101519.91;5049586;28;20488;-48
2022/09/12 07:55:24;;;;;;;2.63;2.00;;;;;;;22.29;49.83;101522.44;5051210;28;20021;-48
2022/09/12 07:57:50;;;;;;;2.33;1.98;;;;;;;22.29;49.72;101522.44;5040434;28;20132;-49
2022/09/12 08:00:16;;;;;;;2.08;1.70;;;;;;;22.30;49.69;101513.31;5031633;28;20041;-50
2022/09/12 08:02:41;;;;;;;2.13;1.80;;;;;;;22.28;49.74;101520.75;5039336;28;20083;-46
2022/09/12 08:05:07;;;;;;;2.50;2.00;;;;;;;22.31;49.72;101525.81;5053150;28;20045;-48
2022/09/12 08:07:33;;;;;;;2.78;2.28;;;;;;;22.32;49.74;101529.38;5029448;28;20037;-51
2022/09/12 08:09:59;;;;;;;1.70;1.60;;;;;;;22.32;49.64;101519.38;5035781;28;20034;-43
2022/09/12 08:12:24;;;;;;;2.17;1.88;;;;;;;22.32;49.85;101532.09;5043789;28;20032;-48
2022/09/12 08:14:49;;;;;;;2.70;2.20;;;;;;;22.30;49.63;101524.16;5040542;28;20124;-50
2022/09/12 08:17:15;;;;;;;2.28;2.03;;;;;;;22.32;49.35;101538.34;5041518;28;20116;-45
2022/09/12 08:19:40;;;;;;;3.25;2.45;;;;;;;22.33;49.85;101536.47;5042445;28;20033;-50
2022/09/12 08:22:05;;;;;;;3.80;2.85;;;;;;;22.34;49.38;101530.03;5028562;28;20029;-47
2022/09/12 08:24:31;;;;;;;4.15;2.92;;;;;;;22.33;49.57;101537.31;5037311;28;20021;-48
2022/09/12 08:26:56;;;;;;;4.07;3.50;;;;;;;22.36;49.76;101542.38;5035080;28;20029;-49
2022/09/12 08:29:21;;;;;;;3.67;3.15;;;;;;;22.39;49.69;101536.63;5052602;28;20480;-45
2022/09/12 08:31:47;;;;;;;4.40;3.08;;;;;;;22.40;49.44;101532.88;5032493;28;20022;-45
2022/09/12 08:34:12;;;;;;;3.88;2.83;;;;;;;22.42;49.54;101538.13;5030313;28;20041;-45
2022/09/12 08:36:37;;;;;;;3.70;3.20;;;;;;;22.41;49.77;101537.28;5039335;28;20461;-44
2022/09/12 08:39:05;;;;;;;3.83;2.67;;;;;;;22.46;49.56;101540.28;5033059;28;20052;-48
2022/09/12 08:41:37;;;;;;;5.03;3.45;;;;;;;22.49;49.67;101535.56;5037544;28;20021;-45
2022/09/12 08:44:29;;;;;;;4.90;3.28;;;;;;;22.53;49.71;101536.91;5022372;28;20022;-49
2022/09/12 08:46:54;;;;;;;4.32;3.40;;;;;;;22.55;49.71;101532.13;5027471;28;20030;-45
2022/09/12 08:49:27;;;;;;;4.35;3.17;;;;;;;22.59;49.79;101526.16;5023247;28;20048;-50
2022/09/12 08:51:54;;;;;;;5.22;3.42;;;;;;;22.59;49.64;101522.63;5018219;28;20055;-49
2022/09/12 08:54:25;;;;;;;4.45;3.45;;;;;;;22.67;49.69;101531.53;5037419;28;20041;-51
2022/09/12 08:56:52;;;;;;;4.25;3.45;;;;;;;22.71;49.51;101535.59;5048857;28;20041;-47
2022/09/12 08:59:17;;;;;;;3.67;3.00;;;;;;;22.74;49.42;101523.56;5019359;28;20040;-51
2022/09/12 09:01:44;;;;;;;4.03;3.13;;;;;;;22.76;49.36;101523.38;5040591;28;20021;-46
2022/09/12 09:04:27;;;;;;;3.65;2.88;;;;;;;22.76;49.25;101523.38;5040529;28;20742;-48
2022/09/12 09:07:17;;;;;;;4.20;3.00;;;;;;;22.71;49.29;101511.19;5038332;28;20053;-43
2022/09/12 09:09:51;;;;;;;3.45;3.05;;;;;;;22.75;49.17;101514.41;5033048;28;20108;-46
2022/09/12 09:12:34;;;;;;;3.63;2.92;;;;;;;22.76;49.17;101507.09;5035452;28;20065;-48
2022/09/12 09:15:30;;;;;;;4.13;3.00;;;;;;;22.77;49.05;101503.34;5022769;28;20022;-47
2022/09/12 09:18:00;;;;;;;3.00;2.60;;;;;;;22.77;49.33;101511.50;5037689;28;20490;-47
2022/09/12 09:20:40;;;;;;;4.28;3.15;;;;;;;22.78;49.20;101514.03;5049895;28;20054;-48
2022/09/12 09:23:16;;;;;;;3.38;2.67;;;;;;;22.75;49.18;101502.72;5036989;28;20113;-50
2022/09/12 09:25:53;;;;;;;4.55;3.33;;;;;;;22.79;49.03;101506.75;5020736;28;20047;-45
2022/09/12 09:28:22;;;;;;;3.85;2.90;;;;;;;22.79;48.96;101509.47;5049540;28;20018;-45
2022/09/12 09:30:48;;;;;;;3.38;2.78;;;;;;;22.76;49.11;101498.97;5042872;28;20032;-46
2022/09/12 09:33:25;;;;;;;2.90;2.40;;;;;;;22.83;49.09;101505.38;5038637;28;20026;-47
2022/09/12 09:35:56;;;;;;;3.53;3.00;;;;;;;22.83;49.15;101499.94;5025452;28;20025;-48
2022/09/12 09:38:37;;;;;;;3.55;3.25;;;;;;;22.84;49.17;101505.19;5037613;28;20052;-46
2022/09/12 09:41:05;;;;;;;3.53;2.72;;;;;;;22.84;49.29;101497.03;5019487;28;20108;-46
2022/09/12 09:43:30;;;;;;;2.80;2.40;;;;;;;22.85;49.13;101497.88;5021949;28;20034;-47
2022/09/12 09:45:56;;;;;;;3.08;2.70;;;;;;;22.87;49.09;101498.56;5021435;28;20055;-49
2022/09/12 09:48:29;;;;;;;3.58;2.65;;;;;;;22.87;49.01;101491.25;5013165;28;20029;-49
2022/09/12 09:50:56;;;;;;;2.85;2.40;;;;;;;22.86;49.02;101497.72;5011017;28;20029;-48
2022/09/12 09:53:53;;;;;;;3.35;2.60;;;;;;;22.89;48.89;101494.63;5009706;28;20573;-47
2022/09/12 09:56:35;;;;;;;2.38;2.08;;;;;;;22.92;48.93;101479.91;5012873;28;20018;-42
2022/09/12 09:59:26;;;;;;;2.97;2.42;;;;;;;22.93;48.99;101479.72;5016790;28;20029;-43
2022/09/12 10:01:55;;;;;;;3.78;2.72;;;;;;;22.94;49.28;101483.28;5017558;28;20097;-48
2022/09/12 10:04:21;;;;;;;;;;;;;;;22.93;49.04;101479.72;5021009;28;20034;-46
2022/09/12 10:06:50;;;;;;;3.15;2.78;;;;;;;22.95;49.06;101468.72;5017139;28;19909;-44
2022/09/12 10:09:22;;;;;;;3.58;2.33;;;;;;;22.95;49.17;101463.28;5019607;28;20038;-48
2022/09/12 10:11:49;;;;;;;3.08;2.58;;;;;;;22.93;49.03;101452.59;5020535;28;20528;-45
2022/09/12 10:14:41;;;;;;;2.75;2.40;;;;;;;22.98;49.15;101459.34;5012879;28;20030;-45
2022/09/12 10:17:41;;;;;;;2.97;2.45;;;;;;;22.98;48.97;101454.78;5002471;28;20033;-49
2022/09/12 10:20:35;;;;;;;3.33;2.47;;;;;;;22.99;49.41;101451.03;5021451;28;20088;-49
2022/09/12 10:23:17;;;;;;;4.00;3.00;;;;;;;23.01;49.13;101445.44;5025859;28;20025;-46
2022/09/12 10:25:46;;;;;;;2.83;2.33;;;;;;;23.00;49.34;101441.88;5024779;28;20025;-46
2022/09/12 10:28:20;;;;;;;3.17;2.88;;;;;;;23.02;49.27;101445.22;5024919;28;20029;-46
2022/09/12 10:30:51;;;;;;;2.80;2.50;;;;;;;23.04;49.19;101445.06;5024119;28;20026;-46
2022/09/12 10:33:17;;;;;;;3.17;2.53;;;;;;;23.04;49.42;101445.91;5026443;28;20032;-48
2022/09/12 10:35:47;;;;;;;2.28;2.00;;;;;;;23.06;49.10;101434.88;5026161;28;20090;-45
2022/09/12 10:38:23;;;;;;;2.70;2.38;;;;;;;23.08;49.24;101438.25;5022434;28;20049;-46
2022/09/12 10:41:02;;;;;;;3.58;3.00;;;;;;;23.09;49.41;101438.06;5022919;28;20038;-47
2022/09/12 10:43:33;;;;;;;2.88;2.35;;;;;;;23.09;49.32;101439.94;5039051;28;20032;-48
2022/09/12 10:46:17;;;;;;;3.28;2.60;;;;;;;23.11;49.41;101435.19;5027844;28;20591;-48
2022/09/12 10:49:17;;;;;;;2.85;2.45;;;;;;;23.12;49.43;101420.59;5024781;28;20083;-44
2022/09/12 10:51:43;;;;;;;2.78;2.47;;;;;;;23.12;49.61;101429.56;5012439;28;20042;-45
2022/09/12 10:54:10;;;;;;;2.78;2.10;;;;;;;23.13;49.62;101424.97;5025427;28;20390;-46
2022/09/12 10:56:48;;;;;;;2.90;2.40;;;;;;;23.16;49.62;101430.03;5019518;28;20038;-46
2022/09/12 10:59:23;;;;;;;2.25;1.90;;;;;;;23.16;49.35;101425.47;5018847;28;20014;-46
2022/09/12 11:01:52;;;;;;;2.63;2.42;;;;;;;23.18;49.55;101427.97;5017719;28;20026;-48
2022/09/12 11:04:36;;;;;;;2.25;2.00;;;;;;;23.18;49.66;101426.09;5025203;28;20091;-50
2022/09/12 11:07:20;;;;;;;3.00;2.30;;;;;;;23.19;49.61;101426.94;5011541;28;20098;-48
2022/09/12 11:10:03;;;;;;;2.50;2.10;;;;;;;23.20;49.48;101417.81;5014153;28;20054;-52
2022/09/12 11:12:40;;;;;;;3.25;2.40;;;;;;;23.20;49.57;101409.66;5017987;28;20018;-51
2022/09/12 11:15:45;;;;;;;2.55;2.35;;;;;;;23.21;49.56;101414.06;5017806;28;20072;-52
2022/09/12 11:18:13;;;;;;;4.60;2.17;;;;;;;23.19;49.62;101406.09;5021354;28;20057;-52
2022/09/12 11:21:15;;;;;;;3.28;2.33;;;;;;;23.20;49.53;101407.78;5024602;28;20044;-53
2022/09/12 11:24:04;;;;;;;2.42;2.05;;;;;;;23.20;49.75;101398.81;5020658;28;20052;-53
2022/09/12 11:26:49;;;;;;;2.67;2.03;;;;;;;23.21;49.47;101395.06;5014288;28;20030;-54
2022/09/12 11:29:44;;;;;;;2.90;2.20;;;;;;;23.22;49.70;101394.03;5018447;28;20022;-53
2022/09/12 11:32:28;;;;;;;2.80;2.35;;;;;;;23.21;49.76;101392.34;5018741;28;20029;-50
2022/09/12 11:35:14;;;;;;;2.95;2.65;;;;;;;23.22;49.80;101394.03;5023298;28;20030;-52
2022/09/12 11:38:07;;;;;;;3.00;2.00;;;;;;;23.23;49.68;101392.16;5013635;28;20038;-50
2022/09/12 11:40:51;;;;;;;2.33;2.10;;;;;;;23.15;49.82;101385.81;5033349;28;20477;-53
2022/09/12 11:43:42;;;;;;;2.70;2.20;;;;;;;23.22;49.82;101393.19;5044355;28;20037;-56